Time;durP1;ratioP1;P1;durP2;ratioP2;P2;SDS_P1;SDS_P2;PMS_P1;PMS_P2;Temp;Humidity;BMP_temperature;BMP_pressure;BME280_temperature;BME280_humidity;BME280_pressure;Samples;Min_cycle;Max_cycle;Signal;HPM_P1;HPM_P2
2023/06/06 06:53:37;;;;;;;3.60;1.70;;;;;;;-144.73;18.60;77859.10;103723;1304;545004;-73
2023/06/06 06:56:24;;;;;;;5.10;1.90;;;;;;;-144.73;18.42;77844.50;105910;1287;22532;-70
2023/06/06 06:59:10;;;;;;;6.50;2.10;;;;;;;-144.73;18.59;77895.80;107009;1264;22532;-72
2023/06/06 07:01:56;;;;;;;4.80;2.30;;;;;;;-144.73;18.53;77858.31;107108;1271;22530;-69
2023/06/06 07:04:45;;;;;;;4.20;1.70;;;;;;;-144.73;18.60;77996.04;107704;1273;22670;-70
2023/06/06 07:07:31;;;;;;;5.90;1.90;;;;;;;-144.73;18.58;78279.80;106858;1278;98348;-69
2023/06/06 07:10:19;;;;;;;4.80;1.80;;;;;;;-144.73;18.80;78524.90;106828;1264;22526;-66
2023/06/06 07:13:06;;;;;;;5.00;2.10;;;;;;;-144.73;19.05;78649.63;106981;1276;22521;-64
2023/06/06 07:15:52;;;;;;;4.30;2.00;;;;;;;-144.73;18.98;78550.95;106868;1270;22519;-69
2023/06/06 07:18:38;;;;;;;4.30;1.70;;;;;;;-144.73;18.99;78440.83;106671;1274;22655;-65
2023/06/06 07:21:25;;;;;;;5.20;1.70;;;;;;;-144.73;19.08;78377.68;107443;1264;22633;-65
2023/06/06 07:24:12;;;;;;;3.50;1.70;;;;;;;-144.73;18.78;78209.55;107306;1270;23251;-61
2023/06/06 07:26:59;;;;;;;5.60;2.10;;;;;;;-144.73;18.73;78030.37;108094;1264;22554;-64
2023/06/06 07:29:45;;;;;;;5.20;1.40;;;;;;;-144.73;18.22;78003.14;107352;1263;24232;-63
2023/06/06 07:32:35;;;;;;;3.30;1.30;;;;;;;-144.73;18.28;78535.96;106901;1267;24239;-68
2023/06/06 07:35:21;;;;;;;7.50;1.50;;;;;;;-144.73;18.38;79023.45;107013;1264;22525;-68
2023/06/06 07:38:08;;;;;;;4.90;1.60;;;;;;;-144.73;19.11;79055.41;106894;1261;22630;-68
2023/06/06 07:40:54;;;;;;;3.20;1.40;;;;;;;-144.73;19.04;79638.90;107310;1268;25350;-68
2023/06/06 07:43:41;;;;;;;4.60;1.80;;;;;;;-144.73;19.34;80105.59;106651;1264;22546;-67
2023/06/06 07:46:27;;;;;;;7.30;2.30;;;;;;;-144.73;19.75;80031.75;106998;1270;24355;-64
2023/06/06 07:49:14;;;;;;;3.10;1.40;;;;;;;-144.73;19.61;79813.01;106735;1270;22533;-65
2023/06/06 07:52:00;;;;;;;2.90;1.60;;;;;;;-144.73;19.42;80032.94;106936;1261;25236;-71
2023/06/06 07:54:46;;;;;;;6.00;1.60;;;;;;;-144.73;19.37;80477.96;107149;1260;25360;-68
2023/06/06 07:57:33;;;;;;;3.70;1.60;;;;;;;-144.73;19.94;80878.79;107036;1257;25350;-66
2023/06/06 08:00:19;;;;;;;3.70;1.50;;;;;;;-144.73;20.56;81170.66;107448;1272;24147;-66
2023/06/06 08:03:07;;;;;;;3.80;1.70;;;;;;;-144.73;20.96;80731.48;106798;1271;22522;-66
2023/06/06 08:05:54;;;;;;;4.70;1.70;;;;;;;-144.73;20.57;80490.59;107090;1254;23263;-66
2023/06/06 08:08:41;;;;;;;3.90;2.20;;;;;;;-144.73;20.41;80202.73;107410;1264;22526;-63
2023/06/06 08:11:27;;;;;;;4.80;1.60;;;;;;;-144.73;20.08;79939.36;107354;1264;23852;-66
2023/06/06 08:14:13;;;;;;;3.60;1.50;;;;;;;-144.73;19.53;80164.04;107226;1270;24327;-64
2023/06/06 08:17:00;;;;;;;3.10;1.70;;;;;;;-144.73;19.91;80283.29;107159;1257;24324;-67
2023/06/06 08:19:46;;;;;;;3.50;1.70;;;;;;;-144.73;20.11;80485.07;107120;1269;22543;-63
2023/06/06 08:22:33;;;;;;;2.60;1.30;;;;;;;-144.73;20.34;80786.77;107057;1270;23765;-67
2023/06/06 08:25:20;;;;;;;3.60;1.50;;;;;;;-144.73;20.76;81220.81;107920;1257;22523;-66
2023/06/06 08:28:07;;;;;;;5.80;1.90;;;;;;;-144.73;21.69;81458.20;107415;1270;22518;-68
2023/06/06 08:30:53;;;;;;;4.80;2.30;;;;;;;-144.73;21.46;81528.11;107157;1269;22532;-66
2023/06/06 08:33:41;;;;;;;5.80;1.80;;;;;;;-144.73;21.65;81562.08;107189;1270;22501;-68
2023/06/06 08:36:27;;;;;;;5.50;2.00;;;;;;;-144.73;21.92;81406.06;107586;1270;22517;-66
2023/06/06 08:39:13;;;;;;;4.60;1.80;;;;;;;-144.73;21.61;81002.02;107858;1269;25229;-66
2023/06/06 08:41:59;;;;;;;5.70;1.70;;;;;;;-144.73;21.56;80804.15;107051;1270;22520;-65
2023/06/06 08:44:46;;;;;;;5.40;1.70;;;;;;;-144.73;21.12;80658.42;107583;1270;22543;-66
2023/06/06 08:47:34;;;;;;;7.40;2.10;;;;;;;-144.73;20.72;80608.27;110189;1264;22346;-63
2023/06/06 08:50:21;;;;;;;3.60;1.40;;;;;;;-144.73;20.65;80951.45;110309;1270;22188;-65
2023/06/06 08:53:08;;;;;;;3.90;1.90;;;;;;;-144.73;20.71;80749.64;110254;1270;22167;-66
2023/06/06 08:55:56;;;;;;;3.60;1.60;;;;;;;-144.73;20.86;80863.39;110292;1270;22178;-66
2023/06/06 08:58:44;;;;;;;3.40;1.40;;;;;;;-144.73;21.00;80879.58;110209;1276;22374;-66
2023/06/06 09:01:31;;;;;;;3.50;1.70;;;;;;;-144.73;20.64;80889.85;110196;1273;23489;-66
2023/06/06 09:04:20;;;;;;;3.80;1.60;;;;;;;-144.73;20.97;81013.46;110314;1269;22354;-66
2023/06/06 09:07:11;;;;;;;3.90;1.60;;;;;;;-144.73;21.09;81025.31;110245;1276;22402;-67
2023/06/06 09:09:57;;;;;;;4.10;1.80;;;;;;;-144.73;20.77;81090.09;110146;1276;22231;-66
2023/06/06 09:12:44;;;;;;;4.90;1.90;;;;;;;-144.73;21.15;81281.25;110219;1276;22375;-70
2023/06/06 09:15:30;;;;;;;3.60;1.80;;;;;;;-144.73;21.45;81309.28;110317;1262;22361;-71
2023/06/06 09:18:19;;;;;;;5.50;2.10;;;;;;;-144.73;21.51;81376.43;110276;1262;22223;-72
2023/06/06 09:21:05;;;;;;;5.00;2.00;;;;;;;-144.73;21.62;81416.33;110255;1276;23157;-71
2023/06/06 09:23:52;;;;;;;3.60;2.00;;;;;;;-144.73;21.82;81488.21;110324;1263;22321;-64
2023/06/06 09:26:39;;;;;;;6.60;1.80;;;;;;;-144.73;22.05;81609.08;110226;1270;22446;-71
2023/06/06 09:29:26;;;;;;;3.50;1.80;;;;;;;-144.73;22.24;81754.45;110278;1271;22325;-67
2023/06/06 09:32:13;;;;;;;4.90;2.10;;;;;;;-144.73;22.64;81882.04;110389;1270;22858;-69
2023/06/06 09:35:00;;;;;;;5.60;2.30;;;;;;;-144.73;22.87;81962.23;110322;1270;22221;-69
2023/06/06 09:37:47;;;;;;;6.20;2.00;;;;;;;-144.73;22.87;82040.45;110312;1269;22171;-67
2023/06/06 09:40:46;;;;;;;5.60;2.00;;;;;;;-144.73;23.33;82162.91;110162;1269;22200;-67
2023/06/06 09:43:35;;;;;;;6.20;2.40;;;;;;;-144.73;23.56;82214.27;110256;1272;22328;-68
2023/06/06 09:46:21;;;;;;;4.60;2.00;;;;;;;-144.73;23.51;82258.52;110223;1271;22177;-67
2023/06/06 09:49:10;;;;;;;4.50;1.90;;;;;;;-144.73;23.51;82294.08;110208;1269;22882;-69
2023/06/06 09:51:56;;;;;;;5.60;2.10;;;;;;;-144.73;23.51;82340.30;110302;1269;22163;-68
2023/06/06 09:54:43;;;;;;;4.50;2.10;;;;;;;-144.73;23.56;82405.09;110268;1269;22403;-67
2023/06/06 09:57:32;;;;;;;4.80;2.10;;;;;;;-144.73;24.19;82456.45;110229;1270;22181;-66
2023/06/06 10:00:18;;;;;;;4.40;2.10;;;;;;;-144.73;24.38;82497.14;110304;1276;22180;-66
2023/06/06 10:03:06;;;;;;;5.50;2.20;;;;;;;-144.73;24.35;82508.61;110230;1270;22380;-68
2023/06/06 10:05:53;;;;;;;4.10;2.10;;;;;;;-144.73;24.52;82507.02;110225;1269;22379;-68
2023/06/06 10:08:39;;;;;;;4.10;1.90;;;;;;;-144.73;24.74;82497.15;110271;1269;22417;-67
2023/06/06 10:11:26;;;;;;;4.00;1.80;;;;;;;-144.73;24.95;82479.37;110253;1271;22377;-72
2023/06/06 10:14:15;;;;;;;5.50;2.20;;;;;;;-144.73;25.06;82456.85;110297;1269;22161;-67
2023/06/06 10:17:01;;;;;;;5.70;2.00;;;;;;;-144.73;25.09;82429.20;110256;1269;22133;-71
2023/06/06 10:19:47;;;;;;;4.60;2.00;;;;;;;-144.73;25.11;82441.84;110314;1262;22319;-69
2023/06/06 10:22:34;;;;;;;4.70;2.10;;;;;;;-144.73;24.76;82459.23;110226;1270;22194;-67
2023/06/06 10:25:21;;;;;;;4.10;1.80;;;;;;;-144.73;24.80;82459.23;110287;1271;23018;-67
2023/06/06 10:28:21;;;;;;;3.90;1.90;;;;;;;-144.73;24.97;82484.11;110265;1272;22380;-67
2023/06/06 10:31:17;;;;;;;5.50;1.90;;;;;;;-144.73;24.82;82440.66;110328;1270;22178;-70
2023/06/06 10:34:10;;;;;;;3.80;1.90;;;;;;;-144.73;24.57;82409.45;110316;1272;22388;-67
2023/06/06 10:36:57;;;;;;;4.10;1.90;;;;;;;-144.73;25.03;82405.49;110317;1270;22201;-66
2023/06/06 10:39:45;;;;;;;4.00;2.10;;;;;;;-144.73;25.21;82390.48;110305;1270;22754;-67
2023/06/06 10:42:39;;;;;;;7.40;2.50;;;;;;;-144.73;24.77;82507.81;110363;1262;22322;-68
2023/06/06 10:45:58;;;;;;;3.70;2.00;;;;;;;-144.73;24.88;82661.52;110254;1276;22181;-68
2023/06/06 10:48:45;;;;;;;4.70;2.00;;;;;;;-144.73;25.25;82725.91;109749;1284;22844;-67
2023/06/06 10:51:39;;;;;;;5.30;2.00;;;;;;;-144.73;25.54;82744.09;109784;1270;22139;-67
2023/06/06 10:54:28;;;;;;;4.00;2.00;;;;;;;-144.73;25.66;82743.30;109807;1271;23062;-67
2023/06/06 10:57:17;;;;;;;3.90;2.10;;;;;;;-144.73;25.61;82751.98;110017;1283;22240;-67
2023/06/06 11:00:03;;;;;;;4.10;2.00;;;;;;;-144.73;26.00;82740.92;109795;1270;22257;-68
2023/06/06 11:02:49;;;;;;;6.40;2.20;;;;;;;-144.73;25.97;82713.27;109771;1278;22343;-67
2023/06/06 11:06:03;;;;;;;6.30;2.30;;;;;;;-144.73;25.79;82672.18;109860;1277;22241;-67
2023/06/06 11:08:54;;;;;;;4.20;2.20;;;;;;;-144.73;25.82;82629.11;109802;1284;22265;-68
2023/06/06 11:11:40;;;;;;;5.40;2.30;;;;;;;-144.73;25.68;82600.27;109825;1284;22175;-68
2023/06/06 11:14:26;;;;;;;6.10;2.10;;;;;;;-144.73;25.42;82571.02;109832;1284;22146;-69
2023/06/06 11:17:13;;;;;;;4.90;2.10;;;;;;;-144.73;25.31;82546.14;109804;1284;22274;-64
2023/06/06 11:20:02;;;;;;;7.10;2.50;;;;;;;-144.73;24.89;82508.21;109804;1280;22961;-67
2023/06/06 11:23:04;;;;;;;5.10;2.50;;;;;;;-144.73;25.06;82495.96;109911;1276;22888;-68
2023/06/06 11:25:50;;;;;;;5.50;1.80;;;;;;;-144.73;25.43;82473.84;110216;1276;22107;-64
2023/06/06 11:28:37;;;;;;;7.00;2.60;;;;;;;-144.73;24.83;82439.07;110347;1270;22128;-68
2023/06/06 11:31:24;;;;;;;7.00;2.20;;;;;;;-144.73;24.52;82431.95;110346;1270;22300;-65
2023/06/06 11:34:13;;;;;;;7.50;2.40;;;;;;;-144.73;24.63;82415.77;110485;1270;22333;-66
2023/06/06 11:36:59;;;;;;;4.00;1.90;;;;;;;-144.73;24.43;82480.55;110319;1270;22341;-64
2023/06/06 11:39:45;;;;;;;7.20;2.30;;;;;;;-144.73;24.88;82524.02;110369;1270;22387;-65
2023/06/06 11:42:31;;;;;;;4.10;1.90;;;;;;;-144.73;25.07;82478.58;110370;1268;23006;-65
2023/06/06 11:45:18;;;;;;;4.50;2.20;;;;;;;-144.73;24.54;82406.27;110382;1273;22336;-66
2023/06/06 11:48:21;;;;;;;4.30;1.90;;;;;;;-144.73;24.39;82375.86;110279;1276;22136;-66
2023/06/06 11:51:14;;;;;;;3.90;1.90;;;;;;;-144.73;24.83;82324.89;110244;1271;22980;-66
2023/06/06 11:54:19;;;;;;;4.20;2.20;;;;;;;-144.73;24.35;82256.15;110255;1270;22354;-67
2023/06/06 11:57:07;;;;;;;3.60;2.10;;;;;;;-144.73;24.15;82228.89;110202;1276;23020;-68
2023/06/06 11:59:59;;;;;;;7.50;2.70;;;;;;;-144.73;24.07;82192.94;110239;1271;22864;-66
2023/06/06 12:02:49;;;;;;;4.80;2.10;;;;;;;-144.73;23.91;82189.39;110328;1270;23285;-67
2023/06/06 12:05:36;;;;;;;5.30;2.50;;;;;;;-144.73;23.98;82187.80;110324;1270;22400;-66
2023/06/06 12:08:23;;;;;;;6.30;2.20;;;;;;;-144.73;24.19;82169.63;110345;1271;22357;-66
2023/06/06 12:11:29;;;;;;;6.50;2.10;;;;;;;-144.73;24.21;82176.74;110374;1276;22320;-65
2023/06/06 12:14:15;;;;;;;5.30;2.10;;;;;;;-144.73;24.29;82182.66;110312;1270;22170;-69
2023/06/06 12:17:05;;;;;;;8.70;1.80;;;;;;;-144.73;24.26;82179.52;110254;1271;22310;-66
2023/06/06 12:19:56;;;;;;;4.60;1.90;;;;;;;-144.73;24.45;82143.95;110316;1266;22378;-67
2023/06/06 12:22:48;;;;;;;4.20;1.70;;;;;;;-144.73;24.13;82118.27;110268;1258;22379;-65
2023/06/06 12:25:34;;;;;;;8.50;2.10;;;;;;;-144.73;23.65;82127.76;110274;1260;22446;-64
2023/06/06 12:28:20;;;;;;;5.40;2.10;;;;;;;-144.73;23.77;82130.92;110266;1270;22142;-65
2023/06/06 12:31:19;;;;;;;6.20;2.20;;;;;;;-144.73;23.71;82064.55;110267;1270;22297;-67
2023/06/06 12:34:06;;;;;;;3.60;1.90;;;;;;;-144.73;23.47;81990.67;110261;1272;22319;-63
2023/06/06 12:36:52;;;;;;;4.70;1.90;;;;;;;-144.73;23.64;82084.30;110281;1270;22389;-73
2023/06/06 12:39:40;;;;;;;8.70;2.30;;;;;;;-144.73;23.31;82095.36;110262;1270;22203;-63
2023/06/06 12:42:26;;;;;;;6.60;2.10;;;;;;;-144.73;23.25;82103.27;110359;1269;22826;-62
2023/06/06 12:45:12;;;;;;;5.50;2.40;;;;;;;-144.73;23.62;82113.14;110333;1263;22876;-64
2023/06/06 12:48:02;;;;;;;4.20;2.10;;;;;;;-144.73;23.68;82103.27;110280;1269;23162;-66
2023/06/06 12:50:49;;;;;;;5.20;2.20;;;;;;;-144.73;23.76;82079.55;110193;1274;22363;-64
2023/06/06 12:53:35;;;;;;;6.10;1.90;;;;;;;-144.73;23.85;82104.05;110234;1260;22340;-63
2023/06/06 12:56:23;;;;;;;5.80;2.20;;;;;;;-144.73;23.73;82095.76;110296;1269;23034;-65
2023/06/06 12:59:08;;;;;;;4.30;1.80;;;;;;;-144.73;23.53;82093.78;110219;1269;23631;-65
2023/06/06 13:01:55;;;;;;;3.30;1.70;;;;;;;-144.73;23.76;82135.27;110221;1262;23171;-65
2023/06/06 13:04:42;;;;;;;6.00;2.20;;;;;;;-144.73;23.59;82125.77;110257;1268;22307;-64
2023/06/06 13:07:28;;;;;;;4.00;2.00;;;;;;;-144.73;23.30;82121.83;110345;1262;22207;-64
2023/06/06 13:10:14;;;;;;;4.10;2.00;;;;;;;-144.73;23.64;82187.80;110289;1269;22345;-66
2023/06/06 13:13:01;;;;;;;5.00;2.00;;;;;;;-144.73;23.74;82197.29;110420;1269;22404;-67
2023/06/06 13:15:47;;;;;;;5.70;1.90;;;;;;;-144.73;23.89;82148.69;110424;1267;22165;-64
2023/06/06 13:18:36;;;;;;;3.10;1.70;;;;;;;-144.73;23.57;82165.67;110515;1274;22919;-64
2023/06/06 13:21:22;;;;;;;3.80;2.00;;;;;;;-144.73;23.37;82226.52;110466;1269;22193;-65
2023/06/06 13:24:08;;;;;;;5.60;2.00;;;;;;;-144.73;23.73;82315.02;110461;1273;22318;-64
2023/06/06 13:26:54;;;;;;;5.50;2.10;;;;;;;-144.73;24.18;82338.71;110448;1268;22370;-64
2023/06/06 13:29:41;;;;;;;3.80;1.80;;;;;;;-144.73;24.15;82345.44;110476;1262;22200;-66
2023/06/06 13:32:27;;;;;;;4.20;1.80;;;;;;;-144.73;24.36;82377.04;110512;1268;22311;-64
2023/06/06 13:35:13;;;;;;;5.30;2.20;;;;;;;-144.73;24.33;82370.33;110445;1269;22329;-68
2023/06/06 13:37:59;;;;;;;4.50;1.70;;;;;;;-144.73;24.14;82381.78;110491;1269;22745;-65
2023/06/06 13:40:46;;;;;;;4.40;1.80;;;;;;;-144.73;23.80;82439.08;110466;1274;22250;-63
2023/06/06 13:43:32;;;;;;;4.10;2.00;;;;;;;-144.73;24.40;82512.16;110456;1265;22333;-63
2023/06/06 13:46:18;;;;;;;3.50;1.90;;;;;;;-144.73;24.61;82520.86;110473;1269;22207;-63
2023/06/06 13:49:04;;;;;;;6.30;2.40;;;;;;;-144.73;24.78;82469.89;110456;1262;22198;-65
2023/06/06 13:51:51;;;;;;;3.80;1.80;;;;;;;-144.73;24.54;82426.02;110453;1262;22905;-69
2023/06/06 13:54:37;;;;;;;5.50;1.90;;;;;;;-144.73;24.54;82458.04;110488;1268;22313;-67
2023/06/06 13:57:28;;;;;;;4.80;2.20;;;;;;;-144.73;24.43;82444.20;110471;1262;22306;-65
2023/06/06 14:00:15;;;;;;;3.50;2.00;;;;;;;-144.73;24.48;82466.34;110461;1269;22211;-64
2023/06/06 14:03:01;;;;;;;5.30;2.40;;;;;;;-144.73;24.72;82478.19;110395;1264;22809;-66
2023/06/06 14:05:47;;;;;;;4.30;2.40;;;;;;;-144.73;24.68;82506.23;110395;1276;22185;-66
2023/06/06 14:08:34;;;;;;;5.40;2.30;;;;;;;-144.73;24.75;82515.33;110418;1262;22123;-66
2023/06/06 14:11:20;;;;;;;7.90;1.60;;;;;;;-144.73;24.97;82525.20;110347;1270;22326;-63
2023/06/06 14:14:07;;;;;;;5.30;2.50;;;;;;;-144.73;24.96;82536.66;110372;1273;22379;-63
2023/06/06 14:16:53;;;;;;;6.00;1.90;;;;;;;-144.73;24.80;82532.71;110261;1274;22337;-64
2023/06/06 14:19:42;;;;;;;4.90;2.10;;;;;;;-144.73;24.73;82571.03;110332;1262;22325;-65
2023/06/06 14:22:33;;;;;;;5.90;2.00;;;;;;;-144.73;24.87;82594.34;110502;1270;22365;-65
2023/06/06 14:25:19;;;;;;;7.10;2.10;;;;;;;-144.73;24.92;82638.59;110373;1271;22412;-66
2023/06/06 14:28:05;;;;;;;4.40;1.90;;;;;;;-144.73;25.23;82659.14;110332;1269;22954;-64
2023/06/06 14:30:51;;;;;;;5.60;2.10;;;;;;;-144.73;25.09;82685.61;110331;1256;22857;-65
2023/06/06 14:33:38;;;;;;;6.70;2.40;;;;;;;-144.73;25.30;82719.98;110318;1274;22340;-62
2023/06/06 14:36:24;;;;;;;4.40;2.10;;;;;;;-144.73;25.63;82754.77;110364;1269;22369;-65
2023/06/06 14:39:11;;;;;;;7.20;2.00;;;;;;;-144.73;25.67;82768.59;110263;1271;22956;-64
2023/06/06 14:41:56;;;;;;;7.00;2.60;;;;;;;-144.73;25.99;82811.26;110283;1270;22319;-66
2023/06/06 14:44:44;;;;;;;4.80;2.40;;;;;;;-144.73;26.09;82816.79;110267;1266;22179;-67
2023/06/06 14:47:31;;;;;;;4.70;2.40;;;;;;;-144.73;25.99;82821.14;110245;1262;22375;-69
2023/06/06 14:50:17;;;;;;;4.40;2.20;;;;;;;-144.73;26.13;82837.73;110224;1270;22187;-63
2023/06/06 14:53:03;;;;;;;6.80;2.30;;;;;;;-144.73;26.27;82849.59;110239;1271;22188;-64
2023/06/06 14:55:49;;;;;;;5.30;2.20;;;;;;;-144.73;26.33;82849.59;110250;1261;22442;-63
2023/06/06 14:58:51;;;;;;;7.00;2.10;;;;;;;-144.73;26.33;82868.94;110249;1271;22223;-65
2023/06/06 15:01:39;;;;;;;6.90;2.30;;;;;;;-144.73;26.29;82888.30;110245;1270;23092;-64
2023/06/06 15:04:25;;;;;;;5.20;2.60;;;;;;;-144.73;26.48;82894.23;110387;1261;22364;-64
2023/06/06 15:07:11;;;;;;;7.70;2.90;;;;;;;-144.73;26.40;82890.27;110267;1272;22451;-64
2023/06/06 15:09:57;;;;;;;4.90;2.40;;;;;;;-144.73;26.44;82893.05;110315;1265;22968;-64
2023/06/06 15:12:43;;;;;;;5.00;2.20;;;;;;;-144.73;26.29;82907.67;110351;1262;22408;-64
2023/06/06 15:15:29;;;;;;;3.70;1.90;;;;;;;-144.73;26.34;82924.27;110410;1276;22184;-65
2023/06/06 15:18:15;;;;;;;5.60;2.30;;;;;;;-144.73;26.33;82940.46;110240;1268;22320;-64
2023/06/06 15:21:02;;;;;;;7.10;2.60;;;;;;;-144.73;26.30;82927.81;110388;1272;23147;-67
2023/06/06 15:23:48;;;;;;;5.30;2.10;;;;;;;-144.73;26.32;82928.61;110382;1276;22219;-65
2023/06/06 15:26:35;;;;;;;5.80;2.30;;;;;;;-144.73;26.23;82927.82;110402;1276;22283;-66
2023/06/06 15:29:21;;;;;;;4.30;2.00;;;;;;;-144.73;26.37;82915.97;110200;1269;22353;-65
2023/06/06 15:32:07;;;;;;;4.80;2.20;;;;;;;-144.73;26.68;82910.83;110394;1266;22113;-68
2023/06/06 15:34:53;;;;;;;9.00;1.90;;;;;;;-144.73;26.57;82930.58;110396;1272;22104;-70
2023/06/06 15:37:40;;;;;;;5.00;2.10;;;;;;;-144.73;26.63;82940.07;110402;1272;22898;-68
2023/06/06 15:40:26;;;;;;;4.80;2.00;;;;;;;-144.73;26.55;82951.92;110348;1262;23179;-68
2023/06/06 15:43:15;;;;;;;6.50;2.70;;;;;;;-144.73;26.69;82968.13;110395;1267;22424;-68
2023/06/06 15:46:02;;;;;;;5.20;2.50;;;;;;;-144.73;26.96;82976.81;110423;1276;22184;-67
2023/06/06 15:48:48;;;;;;;5.90;2.30;;;;;;;-144.73;27.17;82992.63;110220;1258;22397;-67
2023/06/06 15:51:38;;;;;;;4.00;2.00;;;;;;;-144.73;27.18;83008.02;110416;1269;23303;-69
2023/06/06 15:54:24;;;;;;;6.40;2.30;;;;;;;-144.73;27.39;83030.55;110458;1260;22190;-68
2023/06/06 15:57:10;;;;;;;5.80;2.20;;;;;;;-144.73;27.66;83047.55;110454;1260;22161;-67
2023/06/06 15:59:56;;;;;;;6.40;2.30;;;;;;;-144.73;27.83;83066.91;110478;1275;22159;-67
2023/06/06 16:02:43;;;;;;;4.70;2.20;;;;;;;-144.73;27.80;83068.89;110242;1271;22955;-66
2023/06/06 16:05:29;;;;;;;4.50;2.30;;;;;;;-144.73;27.77;83102.48;110261;1270;22323;-66
2023/06/06 16:08:18;;;;;;;7.50;2.50;;;;;;;-144.73;27.87;83111.16;110372;1261;22334;-65
2023/06/06 16:11:04;;;;;;;6.50;2.50;;;;;;;-144.73;28.06;83145.55;110225;1261;23102;-66
2023/06/06 16:13:51;;;;;;;7.30;2.40;;;;;;;-144.73;28.00;83172.81;110261;1271;22306;-66
2023/06/06 16:16:37;;;;;;;11.00;2.70;;;;;;;-144.73;28.34;83179.52;110351;1262;22332;-67
2023/06/06 16:19:23;;;;;;;7.80;3.00;;;;;;;-144.73;28.42;83187.83;110366;1265;22899;-68
2023/06/06 16:22:10;;;;;;;7.00;2.50;;;;;;;-144.73;28.56;83198.10;110367;1262;22303;-67
2023/06/06 16:24:56;;;;;;;6.90;2.50;;;;;;;-144.73;28.69;83216.67;110148;1270;22344;-66
2023/06/06 16:27:44;;;;;;;8.10;2.50;;;;;;;-144.73;28.85;83225.37;110356;1268;23101;-66
2023/06/06 16:30:30;;;;;;;4.60;2.30;;;;;;;-144.73;28.92;83239.59;110285;1265;22316;-67
2023/06/06 16:33:16;;;;;;;7.00;2.20;;;;;;;-144.73;29.03;83253.42;110203;1269;22322;-67
2023/06/06 16:36:02;;;;;;;7.70;2.40;;;;;;;-144.73;29.20;83246.70;110311;1269;22394;-66
2023/06/06 16:38:48;;;;;;;6.20;2.20;;;;;;;-144.73;29.18;83258.56;110348;1269;22876;-67
2023/06/06 16:41:35;;;;;;;6.40;4.00;;;;;;;-144.73;29.48;83285.83;110299;1269;22221;-65
2023/06/06 16:44:21;;;;;;;7.30;2.90;;;;;;;-144.73;29.56;83288.20;110202;1269;22115;-67
2023/06/06 16:47:07;;;;;;;4.40;2.10;;;;;;;-144.73;29.87;83312.70;110173;1271;22191;-67
2023/06/06 16:49:53;;;;;;;8.20;2.70;;;;;;;-144.73;29.90;83331.27;110214;1271;22929;-66
2023/06/06 16:52:40;;;;;;;6.80;2.90;;;;;;;-144.73;30.05;83341.15;110189;1271;22338;-64
2023/06/06 16:55:26;;;;;;;5.50;2.70;;;;;;;-144.73;30.29;83352.61;110329;1276;22138;-68
2023/06/06 16:58:14;;;;;;;5.20;2.40;;;;;;;-144.73;30.23;83354.98;110249;1271;22099;-67
2023/06/06 17:01:01;;;;;;;10.40;3.20;;;;;;;-144.73;30.47;83350.63;110202;1271;22332;-64
2023/06/06 17:03:47;;;;;;;5.80;2.90;;;;;;;-144.73;30.71;83365.65;110320;1276;22130;-66
2023/06/06 17:06:33;;;;;;;8.50;3.00;;;;;;;-144.73;30.89;83385.41;110367;1276;22215;-67
2023/06/06 17:09:20;;;;;;;8.40;2.90;;;;;;;-144.73;31.10;83408.33;110505;1265;22329;-66
2023/06/06 17:12:07;;;;;;;6.60;2.80;;;;;;;-144.73;31.23;83413.86;110285;1277;22916;-65
2023/06/06 17:14:53;;;;;;;8.30;3.00;;;;;;;-144.73;31.38;83456.54;110261;1277;22227;-67
2023/06/06 17:17:39;;;;;;;8.60;2.40;;;;;;;-144.73;31.55;83460.48;110285;1277;22203;-65
2023/06/06 17:20:27;;;;;;;6.40;2.70;;;;;;;-144.73;31.69;83476.70;110337;1269;22835;-64
2023/06/06 17:23:14;;;;;;;6.10;2.60;;;;;;;-144.73;31.83;83500.01;110220;1271;22330;-64
2023/06/06 17:26:00;;;;;;;3.90;2.20;;;;;;;-144.73;32.07;83500.41;110375;1270;22132;-65
2023/06/06 17:28:46;;;;;;;7.00;2.30;;;;;;;-144.73;32.08;83527.28;110215;1276;22215;-65
2023/06/06 17:31:32;;;;;;;9.50;2.60;;;;;;;-144.73;32.22;83533.20;110318;1276;23039;-65
2023/06/06 17:34:18;;;;;;;8.10;3.20;;;;;;;-144.73;32.43;83554.16;110383;1269;22339;-62
2023/06/06 17:37:04;;;;;;;9.40;3.00;;;;;;;-144.73;32.61;83583.00;110270;1261;22218;-64
2023/06/06 17:39:50;;;;;;;6.70;2.50;;;;;;;-144.73;32.73;83589.71;110385;1270;22320;-67
2023/06/06 17:42:38;;;;;;;5.50;2.80;;;;;;;-144.73;32.94;83610.66;110476;1276;22138;-62
2023/06/06 17:45:25;;;;;;;7.40;2.40;;;;;;;-144.73;33.14;83627.27;110541;1269;22177;-66
2023/06/06 17:48:12;;;;;;;6.40;2.80;;;;;;;-144.73;33.14;83636.36;110421;1269;22340;-63
2023/06/06 17:50:58;;;;;;;10.20;2.70;;;;;;;-144.73;33.28;83664.41;110349;1269;22222;-69
2023/06/06 17:53:44;;;;;;;9.00;2.50;;;;;;;-144.73;33.48;83673.51;110266;1271;22226;-66
2023/06/06 17:56:32;;;;;;;5.50;2.70;;;;;;;-144.73;33.66;83679.03;110386;1271;23061;-64
2023/06/06 17:59:19;;;;;;;6.20;2.60;;;;;;;-144.73;33.96;83700.77;110356;1273;22110;-65
2023/06/06 18:02:05;;;;;;;6.70;2.30;;;;;;;-144.73;34.16;83720.92;110357;1276;22120;-65
2023/06/06 18:04:51;;;;;;;7.00;2.60;;;;;;;-144.73;34.28;83739.11;110266;1267;23087;-63
2023/06/06 18:07:37;;;;;;;7.20;2.70;;;;;;;-144.73;34.44;83741.48;110352;1271;22141;-64
2023/06/06 18:10:23;;;;;;;7.30;2.90;;;;;;;-144.73;34.59;83764.80;110306;1270;22162;-64
2023/06/06 18:13:09;;;;;;;7.70;2.80;;;;;;;-144.73;34.86;83757.67;110457;1258;22338;-64
2023/06/06 18:15:55;;;;;;;4.30;2.50;;;;;;;-144.73;34.75;83761.64;110414;1270;22382;-63
2023/06/06 18:18:41;;;;;;;3.80;2.20;;;;;;;-144.73;34.93;83784.16;110269;1271;22369;-71
2023/06/06 18:21:28;;;;;;;6.50;2.40;;;;;;;-144.73;34.85;83791.67;110364;1273;22387;-62
2023/06/06 18:24:14;;;;;;;6.20;2.70;;;;;;;-144.73;35.38;83782.59;110424;1269;22926;-65
2023/06/06 18:27:01;;;;;;;6.30;2.70;;;;;;;-144.73;35.24;83779.41;110288;1274;22218;-66
2023/06/06 18:29:46;;;;;;;11.50;2.60;;;;;;;-144.73;35.22;83812.62;110339;1276;22122;-68
2023/06/06 18:32:33;;;;;;;6.60;3.20;;;;;;;-144.73;35.30;83802.34;110354;1277;22302;-63
2023/06/06 18:35:19;;;;;;;6.20;2.90;;;;;;;-144.73;35.34;83812.23;110309;1276;22336;-70
2023/06/06 18:38:06;;;;;;;6.90;3.20;;;;;;;-144.73;35.62;83828.83;110474;1276;22111;-63
2023/06/06 18:40:52;;;;;;;8.40;3.40;;;;;;;-144.73;35.59;83845.81;110485;1276;22205;-65
2023/06/06 18:43:38;;;;;;;8.30;2.90;;;;;;;-144.73;35.56;83865.98;110500;1276;22234;-67
2023/06/06 18:46:24;;;;;;;10.10;3.90;;;;;;;-144.73;35.47;83866.77;110465;1276;22308;-70
2023/06/06 18:49:11;;;;;;;5.50;3.10;;;;;;;-144.73;35.70;83870.71;110370;1272;22303;-69
2023/06/06 18:51:57;;;;;;;4.90;3.30;;;;;;;-144.73;35.58;83885.34;110303;1271;22188;-65
2023/06/06 18:54:43;;;;;;;8.70;3.20;;;;;;;-144.73;35.76;83888.90;110386;1258;22260;-73
2023/06/06 18:57:30;;;;;;;9.20;3.30;;;;;;;-144.73;35.66;83901.15;110295;1274;22144;-70
2023/06/06 19:00:16;;;;;;;5.60;3.20;;;;;;;-144.73;35.76;83904.31;110336;1272;22147;-76
2023/06/06 19:03:02;;;;;;;7.20;3.50;;;;;;;-144.73;35.49;83904.31;110260;1268;22905;-68
2023/06/06 19:05:49;;;;;;;5.80;3.70;;;;;;;-144.73;35.45;83920.91;110310;1270;22388;-72
2023/06/06 19:08:36;;;;;;;7.00;3.30;;;;;;;-144.73;35.27;83919.73;110109;1271;22381;-73
2023/06/06 19:11:23;;;;;;;5.60;3.30;;;;;;;-144.73;35.23;83914.98;110326;1264;22339;-72
2023/06/06 19:14:10;;;;;;;5.50;2.80;;;;;;;-144.73;35.25;83916.95;110262;1272;22136;-72
2023/06/06 19:16:56;;;;;;;7.40;3.20;;;;;;;-144.73;35.22;83923.29;110258;1277;22115;-65
2023/06/06 19:19:43;;;;;;;6.30;2.50;;;;;;;-144.73;35.15;83927.63;110288;1270;22357;-69
2023/06/06 19:22:31;;;;;;;5.00;2.50;;;;;;;-144.73;35.10;83939.89;110330;1270;22813;-74
2023/06/06 19:25:21;;;;;;;6.20;2.70;;;;;;;-144.73;35.12;83914.19;110266;1270;22803;-67
2023/06/06 19:28:11;;;;;;;9.10;2.90;;;;;;;-144.73;35.15;83920.91;110237;1275;22436;-67
2023/06/06 19:30:58;;;;;;;8.00;2.60;;;;;;;-144.73;35.25;83918.54;110234;1273;22128;-64
2023/06/06 19:33:47;;;;;;;7.00;3.10;;;;;;;-144.73;35.57;83918.94;110247;1270;22388;-73